Ana Sayfa
METAR-TAF:

METAR-TAF

Havaalanları :

Trang, Tayland

Enlem: 07-31N, Boylam: 099-37E, yükseklik: 14 m

Güncel hava durumu gözlemi

Rapor saat 10:00 UTC de 12 dakika önce yapıldı.
Rüzgar kuzeydoğudan 8 kt
Sıcaklık 32°C
Nem 43%
Basınç 1008 hPa
Görüş mesafesi 10 km veya daha fazla
2000 ft yükseklikte az bulutlu

METAR: VTST 251000Z 05008KT 9999 FEW020 32/18 Q1008 NOSIG

Saat: 17:12 (10:12 UTC)

Tahmin

Rapor saat 05:00 UTC de 5 saat ve 12 dakika önce yapıldı.
Ayın 25'si saat 06 UTC'den ayın 26'si saat 06 UTC'ye kadar geçerli Tahmin
Rüzgar doğu/kuzeydoğudan 8 kt
Görüş mesafesi 10 km veya daha fazla
2000 ft yükseklikte az bulutlu
Dönüşüyor
ayın 25'si saat 14 UTC'den ayın 25'si saat 16 UTC'ye kadar
Rüzgar kuzeydan kt

TAF: VTST 250500Z 2506/2606 06008KT 9999 FEW020 BECMG 2514/2516 00000KT

4.000'den fazla havaalanı için hava durumu gözlemleri ve tahminleri (METAR ve TAF raporları).

Kullanılabilir istasyonlar harita üzerinde sarı ve kırmızı noktalarla gösterilir.

İstasyonun adını görmek için fareyi noktanın üzerinde gezdirin.

Sonrasında hava gözlem ve tahminlerini görmek için tıklayın.

Haritayı değiştirmek için: yaklaştırmak için siyah artı işaretli yeşil düğmeye ve uzaklaştırmak için de eksi işaretli düğmeye hızla tıklayın; bitişik haritalar için yeşil okları kullanın.


METAR-TAF: